createdAt,value
2019-01-31T00:00:35.237Z,9.61
2019-01-31T00:06:30.292Z,8.81
2019-01-31T00:12:25.271Z,8.08
2019-01-31T00:18:20.277Z,5.35
2019-01-31T00:24:15.279Z,5.4
2019-01-31T00:30:10.288Z,5.3
2019-01-31T00:36:05.258Z,6.09
2019-01-31T00:42:00.301Z,6.09
2019-01-31T00:47:55.384Z,4.8
2019-01-31T00:53:50.273Z,5.36
2019-01-31T00:59:45.288Z,5.82
2019-01-31T01:05:40.320Z,5.5
2019-01-31T01:11:35.327Z,5.88
2019-01-31T01:17:30.289Z,5.44
2019-01-31T01:23:25.296Z,4.75
2019-01-31T01:29:20.342Z,5.52
2019-01-31T01:35:15.298Z,7.63
2019-01-31T01:41:10.310Z,7.33
2019-01-31T01:47:05.319Z,9.01
2019-01-31T01:53:00.313Z,32.12
2019-01-31T01:58:55.313Z,6
2019-01-31T02:04:50.375Z,5.81
2019-01-31T02:10:45.314Z,6.02
2019-01-31T02:16:40.331Z,5.99
2019-01-31T02:22:35.303Z,7.32
2019-01-31T02:28:30.297Z,6.32
2019-01-31T02:34:25.327Z,6.73
2019-01-31T02:40:20.329Z,8.57
2019-01-31T02:46:15.365Z,8.7
2019-01-31T02:52:10.352Z,8.23
2019-01-31T02:58:05.346Z,11.74
2019-01-31T03:04:00.344Z,11.68
2019-01-31T03:09:55.348Z,15.09
2019-01-31T03:15:50.349Z,14.53
2019-01-31T03:21:45.337Z,12.63
2019-01-31T03:27:40.318Z,11.89
2019-01-31T03:33:35.348Z,13.54
2019-01-31T03:39:30.377Z,14.84
2019-01-31T03:45:25.372Z,13.78
2019-01-31T03:51:20.370Z,11.82
2019-01-31T03:57:15.361Z,13.09
2019-01-31T04:03:10.413Z,12.03
2019-01-31T04:09:05.377Z,12.34
2019-01-31T04:15:00.338Z,11.42
2019-01-31T04:20:55.362Z,12.15
2019-01-31T04:26:50.438Z,12.34
2019-01-31T04:32:45.358Z,10.71
2019-01-31T04:38:40.369Z,9.48
2019-01-31T04:44:35.431Z,9.9
2019-01-31T04:50:30.377Z,11.04
2019-01-31T04:56:25.420Z,10.11
2019-01-31T05:02:20.383Z,11.8
2019-01-31T05:08:15.384Z,13.1
2019-01-31T05:14:10.376Z,12.73
2019-01-31T05:20:05.382Z,13.86
2019-01-31T05:26:00.381Z,13.15
2019-01-31T05:31:55.399Z,10.93
2019-01-31T05:37:50.413Z,11.3
2019-01-31T05:43:45.423Z,10.73
2019-01-31T05:49:40.405Z,6.98
2019-01-31T05:55:35.378Z,11.48
2019-01-31T06:01:30.405Z,8.41
2019-01-31T06:07:25.400Z,10.44
2019-01-31T06:13:20.398Z,15.69
2019-01-31T06:19:15.428Z,16.73
2019-01-31T06:25:10.404Z,11.52
2019-01-31T06:31:05.436Z,20.13
2019-01-31T06:37:00.436Z,15.3
2019-01-31T06:42:55.408Z,14.52
2019-01-31T06:48:50.422Z,17.24
2019-01-31T06:54:45.467Z,19.03
2019-01-31T07:00:40.451Z,17.78
2019-01-31T07:06:35.478Z,15.23
2019-01-31T07:12:30.451Z,12.53
2019-01-31T07:18:25.468Z,17.04
2019-01-31T07:24:20.445Z,14.73
2019-01-31T07:30:15.435Z,22.26
2019-01-31T07:36:10.501Z,15.1
2019-01-31T07:42:05.458Z,21.29
2019-01-31T07:48:00.447Z,19.41
2019-01-31T07:53:55.452Z,16.02
2019-01-31T07:59:50.436Z,25.65
2019-01-31T08:05:45.466Z,34.53
2019-01-31T08:11:40.440Z,30.19
2019-01-31T08:17:35.450Z,27.61
2019-01-31T08:23:30.454Z,25.12
2019-01-31T08:29:25.448Z,20.47
2019-01-31T08:35:20.451Z,22.31
2019-01-31T08:41:15.459Z,48.18
2019-01-31T08:47:10.454Z,119.16
2019-01-31T08:53:05.458Z,67.9
2019-01-31T08:59:00.531Z,58.77
2019-01-31T09:04:55.503Z,49.69
2019-01-31T09:10:50.527Z,58.47
2019-01-31T09:16:45.473Z,57.32
2019-01-31T09:22:40.480Z,48.77
2019-01-31T09:28:35.509Z,48.05
2019-01-31T09:34:30.493Z,49.48
2019-01-31T09:40:25.543Z,54.96
2019-01-31T09:46:20.546Z,52.29
2019-01-31T09:52:15.502Z,55.75
2019-01-31T09:58:10.543Z,52.18
2019-01-31T10:04:05.500Z,47.65
2019-01-31T10:10:00.499Z,58.65
2019-01-31T10:15:55.536Z,67.33
2019-01-31T10:21:50.751Z,52.84
2019-01-31T10:27:45.515Z,51.55
2019-01-31T10:33:40.515Z,51.24
2019-01-31T10:39:35.768Z,45.71
2019-01-31T10:45:30.530Z,39.84
2019-01-31T10:51:25.606Z,50.63
2019-01-31T10:57:20.575Z,53.4
2019-01-31T11:03:15.565Z,58.52
2019-01-31T11:09:10.546Z,46.77
2019-01-31T11:15:05.545Z,47.63
2019-01-31T11:21:00.553Z,43.12
2019-01-31T11:26:57.085Z,31.03
2019-01-31T11:32:50.567Z,41.01
2019-01-31T11:38:45.547Z,36.39
2019-01-31T11:44:40.581Z,42.69
2019-01-31T11:50:35.633Z,39.03
2019-01-31T11:56:30.563Z,47.62
2019-01-31T12:02:25.582Z,51.75
2019-01-31T12:08:20.549Z,82.11
2019-01-31T12:14:15.552Z,106.59
2019-01-31T12:20:10.563Z,54.33
2019-01-31T12:26:05.548Z,46.9
2019-01-31T12:32:00.569Z,45.17
2019-01-31T12:37:55.553Z,37.03
2019-01-31T12:43:50.555Z,39.24
2019-01-31T12:49:45.561Z,51.53
2019-01-31T12:55:40.564Z,44.1
2019-01-31T13:01:35.584Z,49.87
2019-01-31T13:07:30.597Z,49.13
2019-01-31T13:13:25.642Z,47.67
2019-01-31T13:19:20.566Z,39.86
2019-01-31T13:25:15.593Z,30.66
2019-01-31T13:31:10.582Z,32.15
2019-01-31T13:37:05.612Z,31.27
2019-01-31T13:43:00.587Z,37.26
2019-01-31T13:48:55.657Z,89.23
2019-01-31T13:54:50.618Z,44.01
2019-01-31T14:00:45.613Z,46.81
2019-01-31T14:06:40.698Z,64.67
2019-01-31T14:12:35.611Z,55.98
2019-01-31T14:18:30.608Z,53.08
2019-01-31T14:24:25.604Z,50.17
2019-01-31T14:30:21.555Z,61.22
2019-01-31T14:36:15.624Z,62.01
2019-01-31T14:42:10.646Z,61.9
2019-01-31T14:48:05.628Z,48.87
2019-01-31T14:54:00.645Z,55.86
2019-01-31T14:59:55.621Z,69.26
2019-01-31T15:05:50.610Z,54.89
2019-01-31T15:11:45.654Z,54.58
2019-01-31T15:17:40.670Z,52.73
2019-01-31T15:23:35.631Z,59.57
2019-01-31T15:29:30.648Z,64.51
2019-01-31T15:35:25.666Z,71.54
2019-01-31T15:41:20.649Z,71.85
2019-01-31T15:47:15.643Z,63.69
2019-01-31T15:53:10.633Z,84.45
2019-01-31T15:59:05.666Z,63.69
2019-01-31T16:05:00.685Z,65.01
2019-01-31T16:10:55.698Z,68.1
2019-01-31T16:16:50.684Z,71.88
2019-01-31T16:22:45.671Z,56.61
2019-01-31T16:28:40.714Z,50.08
2019-01-31T16:34:35.667Z,61.73
2019-01-31T16:40:30.678Z,58.76
2019-01-31T16:46:25.708Z,55.01
2019-01-31T16:52:20.685Z,48.34
2019-01-31T16:58:15.665Z,48.9
2019-01-31T17:04:10.677Z,48.12
2019-01-31T17:10:05.674Z,45.74
2019-01-31T17:16:00.750Z,55.54
2019-01-31T17:21:55.714Z,59.6
2019-01-31T17:27:50.722Z,52.25
2019-01-31T17:33:45.702Z,65.09
2019-01-31T17:39:40.715Z,81.1
2019-01-31T17:45:35.735Z,110.01
2019-01-31T17:51:30.706Z,89.98
2019-01-31T17:57:25.692Z,78.52
2019-01-31T18:03:20.709Z,80.35
2019-01-31T18:09:15.760Z,75.63
2019-01-31T18:15:10.737Z,92.34
2019-01-31T18:21:05.741Z,107.34
2019-01-31T18:27:00.740Z,117.8
2019-01-31T18:32:55.745Z,99.94
2019-01-31T18:38:50.739Z,95.7
2019-01-31T18:44:45.732Z,98.94
2019-01-31T18:50:40.753Z,99.53
2019-01-31T18:56:35.740Z,109.53
2019-01-31T19:02:30.769Z,133.11
2019-01-31T19:08:25.756Z,162.5
2019-01-31T19:14:20.727Z,139.76
2019-01-31T19:20:15.742Z,130.28
2019-01-31T19:26:10.742Z,143.11
2019-01-31T19:32:05.890Z,142.08
2019-01-31T19:38:02.294Z,137.06
2019-01-31T19:43:55.759Z,133.97
2019-01-31T19:49:50.758Z,124.74
2019-01-31T19:55:45.803Z,99.25
2019-01-31T20:01:40.761Z,82.02
2019-01-31T20:07:35.791Z,96.36
2019-01-31T20:13:30.778Z,96.61
2019-01-31T20:19:25.802Z,62.22
2019-01-31T20:25:20.774Z,38.83
2019-01-31T20:31:15.784Z,43.46
2019-01-31T20:37:10.788Z,38.24
2019-01-31T20:43:05.773Z,30.04
2019-01-31T20:49:00.799Z,35.57
2019-01-31T20:54:55.806Z,38.15
2019-01-31T21:00:50.846Z,36.89
2019-01-31T21:06:45.803Z,40.89
2019-01-31T21:12:40.842Z,62.45
2019-01-31T21:18:35.790Z,54.45
2019-01-31T21:24:30.815Z,58.15
2019-01-31T21:30:25.788Z,83.36
2019-01-31T21:36:20.822Z,72.47
2019-01-31T21:42:15.830Z,100.65
2019-01-31T21:48:10.812Z,87.33
2019-01-31T21:54:05.849Z,76.99
2019-01-31T22:00:00.834Z,53.73
2019-01-31T22:05:55.807Z,50.47
2019-01-31T22:11:50.849Z,45.23
2019-01-31T22:17:45.830Z,49.2
2019-01-31T22:23:40.836Z,52.16
2019-01-31T22:29:35.822Z,51.78
2019-01-31T22:35:30.830Z,53.77
2019-01-31T22:41:25.869Z,62.19
2019-01-31T22:47:25.989Z,59.04
2019-01-31T22:53:15.852Z,53.77
2019-01-31T22:59:10.864Z,56.77
2019-01-31T23:05:05.834Z,53.07
2019-01-31T23:11:00.874Z,56.78
2019-01-31T23:16:55.851Z,58.69
2019-01-31T23:22:50.881Z,55.92
2019-01-31T23:28:45.863Z,65.78
2019-01-31T23:34:40.889Z,65.03
2019-01-31T23:40:35.914Z,63.15
2019-01-31T23:46:30.871Z,75.35
2019-01-31T23:52:25.920Z,71.55
2019-01-31T23:58:20.865Z,60.98
